createdAt,value
2022-09-10T00:00:52.857Z,0
2022-09-10T00:01:54.237Z,0
2022-09-10T00:02:54.470Z,0
2022-09-10T00:03:55.647Z,0
2022-09-10T00:04:55.849Z,0
2022-09-10T00:05:56.166Z,0
2022-09-10T00:06:57.653Z,0
2022-09-10T00:07:57.541Z,0
2022-09-10T00:08:58.162Z,0
2022-09-10T00:09:59.347Z,0
2022-09-10T00:11:00.365Z,0
2022-09-10T00:12:01.288Z,0
2022-09-10T00:13:02.186Z,0
2022-09-10T00:14:03.155Z,0
2022-09-10T00:15:03.777Z,0
2022-09-10T00:16:05.245Z,0
2022-09-10T00:17:05.539Z,0
2022-09-10T00:18:06.470Z,0
2022-09-10T00:19:07.149Z,0
2022-09-10T00:20:08.054Z,0
2022-09-10T00:21:08.691Z,0
2022-09-10T00:22:09.878Z,0
2022-09-10T00:23:09.494Z,0
2022-09-10T00:24:10.203Z,0
2022-09-10T00:25:14.303Z,0
2022-09-10T00:26:11.512Z,0
2022-09-10T00:27:11.733Z,0
2022-09-10T00:28:11.044Z,0
2022-09-10T00:29:12.688Z,0
2022-09-10T00:30:12.876Z,0
2022-09-10T00:31:13.386Z,0
2022-09-10T00:32:13.805Z,0
2022-09-10T00:33:14.709Z,0
2022-09-10T00:34:15.136Z,0
2022-09-10T00:35:16.021Z,0
2022-09-10T00:36:16.740Z,0
2022-09-10T00:37:17.936Z,0
2022-09-10T00:38:18.123Z,0
2022-09-10T00:39:19.347Z,0
2022-09-10T00:40:18.716Z,0
2022-09-10T00:41:19.905Z,0
2022-09-10T00:42:20.426Z,0
2022-09-10T00:43:20.667Z,0
2022-09-10T00:44:21.689Z,0
2022-09-10T00:45:22.196Z,0
2022-09-10T00:46:22.873Z,0
2022-09-10T00:47:23.781Z,0
2022-09-10T00:48:24.690Z,0
2022-09-10T00:49:25.617Z,0
2022-09-10T00:50:26.244Z,0
2022-09-10T00:51:27.179Z,0
2022-09-10T00:52:27.544Z,0
2022-09-10T00:53:28.551Z,0
2022-09-10T00:54:29.270Z,0
2022-09-10T00:55:29.303Z,0
2022-09-10T00:56:30.225Z,0
2022-09-10T00:57:31.235Z,0
2022-09-10T00:58:30.937Z,0
2022-09-10T00:59:32.211Z,0
2022-09-10T01:00:32.453Z,0
2022-09-10T01:01:33.135Z,0
2022-09-10T01:02:34.147Z,0
2022-09-10T01:03:36.268Z,0
2022-09-10T01:04:35.572Z,0
2022-09-10T01:05:36.059Z,0
2022-09-10T01:06:35.951Z,0
2022-09-10T01:07:36.857Z,0
2022-09-10T01:08:37.294Z,0
2022-09-10T01:09:37.420Z,0
2022-09-10T01:10:38.326Z,0
2022-09-10T01:11:40.787Z,0
2022-09-10T01:12:42.041Z,0
2022-09-10T01:13:39.509Z,0
2022-09-10T01:14:39.220Z,0
2022-09-10T01:15:40.720Z,0
2022-09-10T01:16:40.744Z,0
2022-09-10T01:17:41.373Z,0
2022-09-10T01:18:42.586Z,0
2022-09-10T01:19:43.497Z,0
2022-09-10T01:20:43.697Z,0
2022-09-10T01:21:44.908Z,0
2022-09-10T01:22:44.518Z,0
2022-09-10T01:23:45.130Z,0
2022-09-10T01:24:45.843Z,0
2022-09-10T01:25:46.049Z,0
2022-09-10T01:26:46.249Z,0
2022-09-10T01:27:47.496Z,0
2022-09-10T01:28:47.472Z,0
2022-09-10T01:29:47.375Z,0
2022-09-10T01:30:48.318Z,0
2022-09-10T01:31:48.786Z,0
2022-09-10T01:32:49.136Z,0
2022-09-10T01:33:49.749Z,0
2022-09-10T01:34:50.723Z,0
2022-09-10T01:35:50.334Z,0
2022-09-10T01:36:51.773Z,0
2022-09-10T01:37:52.962Z,0
2022-09-10T01:38:53.298Z,0
2022-09-10T01:39:54.444Z,0
2022-09-10T01:40:54.741Z,0
2022-09-10T01:41:54.718Z,0
2022-09-10T01:42:55.078Z,0
2022-09-10T01:43:55.699Z,0
2022-09-10T01:44:56.983Z,0
2022-09-10T01:45:57.153Z,0
2022-09-10T01:46:58.424Z,0
2022-09-10T01:47:58.330Z,0
2022-09-10T01:48:59.242Z,0
2022-09-10T01:50:00.190Z,0
2022-09-10T01:51:01.112Z,0
2022-09-10T01:52:01.021Z,0
2022-09-10T01:53:02.225Z,0
2022-09-10T01:54:02.264Z,0
2022-09-10T01:55:03.260Z,0
2022-09-10T01:56:04.173Z,0
2022-09-10T01:57:05.378Z,0
2022-09-10T01:58:05.616Z,0
2022-09-10T01:59:05.810Z,0
2022-09-10T02:00:05.715Z,0
2022-09-10T02:01:06.744Z,0
2022-09-10T02:02:07.064Z,0
2022-09-10T02:03:07.761Z,0
2022-09-10T02:04:08.378Z,0
2022-09-10T02:05:09.690Z,0
2022-09-10T02:06:10.320Z,0
2022-09-10T02:07:10.658Z,0
2022-09-10T02:08:12.146Z,0
2022-09-10T02:09:11.587Z,0
2022-09-10T02:10:12.494Z,0
2022-09-10T02:11:13.401Z,0
2022-09-10T02:12:13.601Z,0
2022-09-10T02:13:14.551Z,0
2022-09-10T02:14:14.441Z,0
2022-09-10T02:15:15.574Z,0
2022-09-10T02:16:16.660Z,0
2022-09-10T02:17:16.618Z,0
2022-09-10T02:18:17.523Z,0
2022-09-10T02:19:17.449Z,0
2022-09-10T02:20:18.675Z,0
2022-09-10T02:21:18.713Z,0
2022-09-10T02:22:19.625Z,0
2022-09-10T02:23:20.237Z,0
2022-09-10T02:24:20.893Z,0
2022-09-10T02:25:21.646Z,0
2022-09-10T02:26:22.573Z,0
2022-09-10T02:27:23.502Z,0
2022-09-10T02:28:24.150Z,0
2022-09-10T02:29:24.046Z,0
2022-09-10T02:30:24.956Z,0
2022-09-10T02:31:25.422Z,0
2022-09-10T02:32:26.398Z,0
2022-09-10T02:33:26.707Z,0
2022-09-10T02:34:27.898Z,0
2022-09-10T02:35:28.164Z,0
2022-09-10T02:36:28.649Z,0
2022-09-10T02:37:29.080Z,0
2022-09-10T02:38:30.286Z,0
2022-09-10T02:39:30.493Z,0
2022-09-10T02:40:30.712Z,0
2022-09-10T02:41:30.745Z,0
2022-09-10T02:42:31.942Z,0
2022-09-10T02:43:32.587Z,0
2022-09-10T02:44:33.211Z,0
2022-09-10T02:45:35.130Z,0
2022-09-10T02:46:35.113Z,0
2022-09-10T02:47:36.636Z,0
2022-09-10T02:48:37.369Z,0
2022-09-10T02:49:38.001Z,0
2022-09-10T02:50:39.197Z,0
2022-09-10T02:51:39.816Z,0
2022-09-10T02:52:40.705Z,0
2022-09-10T02:53:41.894Z,0
2022-09-10T02:54:41.511Z,0
2022-09-10T02:55:42.198Z,0
2022-09-10T02:56:42.808Z,0
2022-09-10T02:57:43.716Z,0
2022-09-10T02:58:44.997Z,0
2022-09-10T02:59:44.910Z,0
2022-09-10T03:00:46.320Z,0
2022-09-10T03:01:46.746Z,0
2022-09-10T03:02:46.680Z,0
2022-09-10T03:03:47.864Z,0
2022-09-10T03:04:48.057Z,0
2022-09-10T03:05:48.759Z,0
2022-09-10T03:06:48.929Z,0
2022-09-10T03:07:49.826Z,0
2022-09-10T03:08:50.536Z,0
2022-09-10T03:09:50.437Z,0
2022-09-10T03:10:51.625Z,0
2022-09-10T03:11:51.938Z,0
2022-09-10T03:12:53.138Z,0
2022-09-10T03:13:52.798Z,0
2022-09-10T03:14:53.698Z,0
2022-09-10T03:15:54.113Z,0
2022-09-10T03:16:55.432Z,0
2022-09-10T03:17:55.337Z,0
2022-09-10T03:18:56.229Z,0
2022-09-10T03:19:56.415Z,0
2022-09-10T03:20:57.334Z,0
2022-09-10T03:21:57.967Z,0
2022-09-10T03:22:58.310Z,0
2022-09-10T03:23:59.587Z,0
2022-09-10T03:24:59.550Z,0
2022-09-10T03:26:00.638Z,0
2022-09-10T03:27:01.569Z,0
2022-09-10T03:28:01.796Z,0
2022-09-10T03:29:02.745Z,0
2022-09-10T03:30:03.724Z,0
2022-09-10T03:31:03.912Z,0
2022-09-10T03:32:03.712Z,0
2022-09-10T03:33:04.047Z,0
2022-09-10T03:34:05.253Z,0
2022-09-10T03:35:05.916Z,0
2022-09-10T03:36:06.890Z,0
2022-09-10T03:37:07.520Z,0
2022-09-10T03:38:08.812Z,0
2022-09-10T03:39:08.703Z,0
2022-09-10T03:40:08.584Z,0
2022-09-10T03:41:09.009Z,0
2022-09-10T03:42:09.903Z,0
2022-09-10T03:43:10.802Z,0
2022-09-10T03:44:12.042Z,0
2022-09-10T03:45:11.934Z,0
2022-09-10T03:46:12.542Z,0
2022-09-10T03:47:12.737Z,0
2022-09-10T03:48:12.381Z,0
2022-09-10T03:49:13.272Z,0
2022-09-10T03:50:13.604Z,0
2022-09-10T03:51:14.528Z,0
2022-09-10T03:52:15.140Z,0
2022-09-10T03:53:16.032Z,0
2022-09-10T03:54:16.656Z,0
2022-09-10T03:55:17.291Z,0
2022-09-10T03:56:18.575Z,0
2022-09-10T03:57:18.506Z,0
2022-09-10T03:58:19.739Z,0
2022-09-10T03:59:19.658Z,0
2022-09-10T04:00:20.831Z,0
2022-09-10T04:01:21.376Z,0
2022-09-10T04:02:22.010Z,0
2022-09-10T04:03:23.308Z,0
2022-09-10T04:04:23.216Z,0
2022-09-10T04:05:24.402Z,0
2022-09-10T04:06:24.418Z,0
2022-09-10T04:07:25.308Z,0
2022-09-10T04:08:25.640Z,0
2022-09-10T04:09:27.080Z,0
2022-09-10T04:10:26.708Z,0
2022-09-10T04:11:27.894Z,0
2022-09-10T04:12:27.784Z,0
2022-09-10T04:13:28.682Z,0
2022-09-10T04:14:28.927Z,0
2022-09-10T04:15:29.532Z,0
2022-09-10T04:16:30.523Z,0
2022-09-10T04:17:30.258Z,0
2022-09-10T04:18:30.878Z,0
2022-09-10T04:19:31.791Z,0
2022-09-10T04:20:31.675Z,0
2022-09-10T04:21:32.293Z,0
2022-09-10T04:22:33.207Z,0
2022-09-10T04:23:33.539Z,0
2022-09-10T04:24:34.169Z,0
2022-09-10T04:25:35.410Z,0
2022-09-10T04:26:35.836Z,0
2022-09-10T04:27:36.167Z,0
2022-09-10T04:28:37.330Z,0
2022-09-10T04:29:37.287Z,4
2022-09-10T04:30:37.196Z,4
2022-09-10T04:31:37.443Z,0
2022-09-10T04:32:38.273Z,0
2022-09-10T04:33:38.883Z,4
2022-09-10T04:34:39.223Z,4
2022-09-10T04:35:39.836Z,4
2022-09-10T04:36:40.555Z,4
2022-09-10T04:37:41.461Z,4
2022-09-10T04:38:42.922Z,4
2022-09-10T04:39:42.908Z,8
2022-09-10T04:40:43.619Z,8
2022-09-10T04:41:43.812Z,8
2022-09-10T04:42:43.847Z,12
2022-09-10T04:43:45.059Z,12
2022-09-10T04:44:46.305Z,12
2022-09-10T04:45:46.083Z,16
2022-09-10T04:46:47.169Z,12
2022-09-10T04:47:48.382Z,16
2022-09-10T04:48:48.639Z,12
2022-09-10T04:49:49.844Z,16
2022-09-10T04:51:23.435Z,16
2022-09-10T04:51:51.664Z,16
2022-09-10T04:52:51.977Z,12
2022-09-10T04:53:52.291Z,16
2022-09-10T04:54:53.474Z,16
2022-09-10T04:55:53.110Z,20
2022-09-10T04:56:53.240Z,20
2022-09-10T04:57:53.577Z,20
2022-09-10T04:58:55.842Z,20
2022-09-10T04:59:56.070Z,24
2022-09-10T05:00:56.223Z,24
2022-09-10T05:01:56.711Z,24
2022-09-10T05:02:57.020Z,24
2022-09-10T05:03:57.909Z,24
2022-09-10T05:04:58.521Z,24
2022-09-10T05:05:59.735Z,24
2022-09-10T05:07:00.032Z,28
2022-09-10T05:07:59.949Z,32
2022-09-10T05:09:00.864Z,36
2022-09-10T05:10:02.070Z,40
2022-09-10T05:11:02.267Z,44
2022-09-10T05:12:02.182Z,48
2022-09-10T05:13:02.085Z,52
2022-09-10T05:14:03.005Z,56
2022-09-10T05:15:03.232Z,60
2022-09-10T05:16:03.433Z,60
2022-09-10T05:17:03.555Z,64
2022-09-10T05:18:03.538Z,68
2022-09-10T05:19:03.569Z,72
2022-09-10T05:20:05.482Z,76
2022-09-10T05:21:05.525Z,76
2022-09-10T05:22:06.716Z,68
2022-09-10T05:23:06.326Z,64
2022-09-10T05:24:07.515Z,60
2022-09-10T05:25:08.125Z,64
2022-09-10T05:26:09.330Z,64
2022-09-10T05:27:09.757Z,72
2022-09-10T05:28:10.668Z,76
2022-09-10T05:29:11.894Z,68
2022-09-10T05:30:13.114Z,56
2022-09-10T05:31:12.832Z,48
2022-09-10T05:32:13.558Z,44
2022-09-10T05:33:14.758Z,40
2022-09-10T05:34:15.959Z,40
2022-09-10T05:35:15.574Z,40
2022-09-10T05:36:16.484Z,44
2022-09-10T05:37:17.461Z,48
2022-09-10T05:38:17.957Z,48
2022-09-10T05:39:17.999Z,44
2022-09-10T05:40:18.688Z,40
2022-09-10T05:41:18.573Z,40
2022-09-10T05:42:19.463Z,36
2022-09-10T05:43:20.355Z,32
2022-09-10T05:44:21.581Z,36
2022-09-10T05:45:21.509Z,32
2022-09-10T05:46:22.234Z,36
2022-09-10T05:47:23.244Z,36
2022-09-10T05:48:24.456Z,40
2022-09-10T05:49:25.386Z,40
2022-09-10T05:50:25.570Z,44
2022-09-10T05:51:25.907Z,48
2022-09-10T05:52:26.832Z,52
2022-09-10T05:53:28.023Z,56
2022-09-10T05:54:27.931Z,60
2022-09-10T05:55:28.564Z,60
2022-09-10T05:56:28.879Z,60
2022-09-10T05:57:30.291Z,60
2022-09-10T05:58:31.293Z,60
2022-09-10T05:59:32.170Z,60
2022-09-10T06:00:33.368Z,56
2022-09-10T06:01:33.542Z,52
2022-09-10T06:02:35.646Z,56
2022-09-10T06:03:35.036Z,60
2022-09-10T06:04:35.949Z,60
2022-09-10T06:05:36.283Z,72
2022-09-10T06:06:37.520Z,76
2022-09-10T06:07:37.523Z,84
2022-09-10T06:08:38.044Z,92
2022-09-10T06:09:38.991Z,112
2022-09-10T06:10:38.615Z,132
2022-09-10T06:11:39.528Z,156
2022-09-10T06:12:39.845Z,176
2022-09-10T06:13:40.758Z,208
2022-09-10T06:14:41.983Z,232
2022-09-10T06:15:42.216Z,240
2022-09-10T06:16:42.091Z,228
2022-09-10T06:17:42.887Z,200
2022-09-10T06:18:43.961Z,200
2022-09-10T06:19:44.147Z,216
2022-09-10T06:20:44.062Z,244
2022-09-10T06:21:44.679Z,264
2022-09-10T06:22:45.310Z,276
2022-09-10T06:23:45.898Z,268
2022-09-10T06:24:46.493Z,268
2022-09-10T06:25:47.134Z,260
2022-09-10T06:26:48.330Z,272
2022-09-10T06:27:49.340Z,248
2022-09-10T06:28:49.538Z,204
2022-09-10T06:29:49.766Z,180
2022-09-10T06:30:50.324Z,188
2022-09-10T06:31:51.348Z,224
2022-09-10T06:32:51.844Z,260
2022-09-10T06:33:52.050Z,272
2022-09-10T06:34:51.666Z,240
2022-09-10T06:35:55.527Z,196
2022-09-10T06:36:53.154Z,160
2022-09-10T06:37:54.423Z,148
2022-09-10T06:38:54.042Z,148
2022-09-10T06:39:55.786Z,160
2022-09-10T06:40:56.043Z,188
2022-09-10T06:42:00.417Z,220
2022-09-10T06:42:57.611Z,232
2022-09-10T06:43:58.224Z,224
2022-09-10T06:44:59.147Z,216
2022-09-10T06:46:00.349Z,208
2022-09-10T06:48:48.117Z,196
2022-09-10T06:49:36.403Z,204
2022-09-10T06:50:37.332Z,220
2022-09-10T06:51:37.246Z,236
2022-09-10T06:52:38.436Z,240
2022-09-10T06:53:38.065Z,268
2022-09-10T06:54:39.247Z,280
2022-09-10T06:55:39.566Z,284
2022-09-10T06:56:40.205Z,280
2022-09-10T06:57:40.799Z,292
2022-09-10T06:58:41.975Z,308
2022-09-10T06:59:42.249Z,324
2022-09-10T07:00:43.462Z,372
2022-09-10T07:01:44.530Z,408
2022-09-10T07:02:43.911Z,368
2022-09-10T07:03:44.534Z,320
2022-09-10T07:04:45.468Z,244
2022-09-10T07:05:46.393Z,228
2022-09-10T07:06:46.594Z,256
2022-09-10T07:07:47.490Z,288
2022-09-10T07:08:48.506Z,364
2022-09-10T07:09:48.514Z,464
2022-09-10T07:10:48.707Z,512
2022-09-10T07:11:52.530Z,560
2022-09-10T07:12:50.424Z,484
2022-09-10T07:13:50.612Z,456
2022-09-10T07:14:50.503Z,432
2022-09-10T07:15:51.954Z,392
2022-09-10T07:16:51.960Z,408
2022-09-10T07:17:51.843Z,436
2022-09-10T07:18:53.334Z,444
2022-09-10T07:19:53.171Z,444
2022-09-10T07:20:54.089Z,440
2022-09-10T07:21:54.993Z,504
2022-09-10T07:22:56.188Z,600
2022-09-10T07:23:57.482Z,672
2022-09-10T07:24:57.398Z,604
2022-09-10T07:25:58.012Z,572
2022-09-10T07:26:58.639Z,628
2022-09-10T07:27:59.774Z,720
2022-09-10T07:29:00.414Z,620
2022-09-10T07:30:01.121Z,516
2022-09-10T07:31:02.189Z,488
2022-09-10T07:32:02.452Z,520
2022-09-10T07:33:03.111Z,592
2022-09-10T07:34:03.147Z,616
2022-09-10T07:35:04.335Z,636
2022-09-10T07:36:03.967Z,664
2022-09-10T07:37:04.579Z,736
2022-09-10T07:38:05.201Z,844
2022-09-10T07:39:06.125Z,956
2022-09-10T07:40:06.886Z,828
2022-09-10T07:41:06.893Z,876
2022-09-10T07:42:07.207Z,856
2022-09-10T07:43:08.119Z,904
2022-09-10T07:44:08.738Z,900
2022-09-10T07:45:09.379Z,876
2022-09-10T07:46:15.717Z,1028
2022-09-10T07:47:10.759Z,1224
2022-09-10T07:48:11.658Z,1228
2022-09-10T07:49:11.977Z,1208
2022-09-10T07:50:13.572Z,1196
2022-09-10T07:51:13.478Z,1228
2022-09-10T07:52:14.118Z,1308
2022-09-10T07:53:14.734Z,1544
2022-09-10T07:54:15.384Z,1296
2022-09-10T07:55:16.004Z,928
2022-09-10T07:56:16.621Z,836
2022-09-10T07:57:17.531Z,740
2022-09-10T07:58:18.429Z,808
2022-09-10T07:59:19.342Z,868
2022-09-10T08:00:19.617Z,852
2022-09-10T08:01:20.131Z,900
2022-09-10T08:02:20.425Z,900
2022-09-10T08:03:20.520Z,1060
2022-09-10T08:04:21.147Z,1084
2022-09-10T08:05:22.070Z,1232
2022-09-10T08:06:23.278Z,1224
2022-09-10T08:07:23.769Z,1192
2022-09-10T08:08:23.690Z,1244
2022-09-10T08:09:24.621Z,1300
2022-09-10T08:10:25.644Z,1420
2022-09-10T08:11:26.568Z,1516
2022-09-10T08:12:27.780Z,1748
2022-09-10T08:13:27.109Z,1696
2022-09-10T08:14:28.003Z,1468
2022-09-10T08:15:28.915Z,1056
2022-09-10T08:16:29.929Z,1140
2022-09-10T08:17:29.854Z,1176
2022-09-10T08:18:30.897Z,888
2022-09-10T08:19:31.271Z,680
2022-09-10T08:20:32.393Z,520
2022-09-10T08:21:33.004Z,452
2022-09-10T08:22:33.615Z,432
2022-09-10T08:23:34.248Z,420
2022-09-10T08:24:35.171Z,444
2022-09-10T08:25:35.104Z,536
2022-09-10T08:26:36.019Z,604
2022-09-10T08:27:36.676Z,604
2022-09-10T08:28:37.635Z,552
2022-09-10T08:29:37.572Z,564
2022-09-10T08:30:38.590Z,640
2022-09-10T08:31:38.555Z,692
2022-09-10T08:32:40.076Z,684
2022-09-10T08:33:39.676Z,636
2022-09-10T08:34:40.640Z,556
2022-09-10T08:35:41.256Z,500
2022-09-10T08:36:42.164Z,452
2022-09-10T08:37:43.355Z,396
2022-09-10T08:38:44.039Z,380
2022-09-10T08:39:44.508Z,388
2022-09-10T08:40:44.563Z,400
2022-09-10T08:41:44.474Z,384
2022-09-10T08:42:45.383Z,436
2022-09-10T08:43:46.026Z,468
2022-09-10T08:44:47.235Z,420
2022-09-10T08:45:47.812Z,304
2022-09-10T08:46:48.803Z,256
2022-09-10T08:47:49.042Z,224
2022-09-10T08:48:49.498Z,192
2022-09-10T08:49:50.408Z,184
2022-09-10T08:50:51.115Z,212
2022-09-10T08:51:52.043Z,264
2022-09-10T08:52:52.656Z,332
2022-09-10T08:53:52.995Z,316
2022-09-10T08:54:54.214Z,232
2022-09-10T08:55:58.285Z,184
2022-09-10T08:56:55.481Z,176
2022-09-10T08:57:55.374Z,184
2022-09-10T08:58:56.564Z,192
2022-09-10T08:59:57.503Z,196
2022-09-10T09:00:58.198Z,204
2022-09-10T09:01:58.724Z,212
2022-09-10T09:03:01.137Z,192
2022-09-10T09:03:59.163Z,172
2022-09-10T09:04:59.893Z,168
2022-09-10T09:06:00.803Z,176
2022-09-10T09:07:01.720Z,184
2022-09-10T09:08:02.613Z,180
2022-09-10T09:09:03.567Z,172
2022-09-10T09:10:03.864Z,164
2022-09-10T09:11:04.599Z,156
2022-09-10T09:12:05.480Z,156
2022-09-10T09:13:06.400Z,152
2022-09-10T09:14:07.009Z,148
2022-09-10T09:15:14.641Z,152
2022-09-10T09:16:08.474Z,152
2022-09-10T09:17:08.903Z,156
2022-09-10T09:18:09.558Z,156
2022-09-10T09:19:10.752Z,156
2022-09-10T09:20:10.669Z,160
2022-09-10T09:21:11.373Z,160
2022-09-10T09:22:11.590Z,156
2022-09-10T09:23:12.776Z,156
2022-09-10T09:24:26.310Z,152
2022-09-10T09:25:12.954Z,148
2022-09-10T09:26:13.439Z,148
2022-09-10T09:27:13.626Z,152
2022-09-10T09:28:13.517Z,152
2022-09-10T09:29:14.006Z,148
2022-09-10T09:30:14.620Z,144
2022-09-10T09:31:20.192Z,140
2022-09-10T09:32:15.926Z,140
2022-09-10T09:33:16.859Z,140
2022-09-10T09:34:17.043Z,148
2022-09-10T09:35:17.934Z,160
2022-09-10T09:36:18.852Z,168
2022-09-10T09:37:19.350Z,180
2022-09-10T09:38:18.984Z,200
2022-09-10T09:39:21.268Z,224
2022-09-10T09:40:20.197Z,232
2022-09-10T09:41:20.466Z,244
2022-09-10T09:42:20.680Z,248
2022-09-10T09:43:21.301Z,244
2022-09-10T09:44:22.512Z,248
2022-09-10T09:45:22.419Z,252
2022-09-10T09:46:23.461Z,244
2022-09-10T09:47:24.089Z,220
2022-09-10T09:48:25.029Z,204
2022-09-10T09:49:25.505Z,196
2022-09-10T09:50:25.846Z,196
2022-09-10T09:51:26.835Z,212
2022-09-10T09:52:28.346Z,220
2022-09-10T09:53:28.544Z,220
2022-09-10T09:55:21.602Z,220
2022-09-10T09:55:38.816Z,220
2022-09-10T09:56:38.856Z,216
2022-09-10T09:57:39.789Z,220
2022-09-10T09:58:41.113Z,228
2022-09-10T09:59:41.049Z,240
2022-09-10T10:00:41.264Z,260
2022-09-10T10:01:42.421Z,276
2022-09-10T10:02:42.892Z,284
2022-09-10T10:03:44.138Z,292
2022-09-10T10:04:48.170Z,284
2022-09-10T10:05:45.155Z,272
2022-09-10T10:06:46.050Z,268
2022-09-10T10:07:45.980Z,276
2022-09-10T10:08:47.276Z,276
2022-09-10T10:09:47.193Z,280
2022-09-10T10:10:48.136Z,280
2022-09-10T10:11:48.849Z,276
2022-09-10T10:12:49.764Z,276
2022-09-10T10:13:49.657Z,288
2022-09-10T10:14:50.143Z,312
2022-09-10T10:15:49.982Z,324
2022-09-10T10:16:51.222Z,332
2022-09-10T10:17:51.471Z,332
2022-09-10T10:18:51.870Z,340
2022-09-10T10:19:51.485Z,356
2022-09-10T10:20:52.696Z,368
2022-09-10T10:21:53.454Z,376
2022-09-10T10:22:54.081Z,380
2022-09-10T10:23:55.419Z,384
2022-09-10T10:24:56.310Z,396
2022-09-10T10:25:57.517Z,408
2022-09-10T10:26:57.113Z,420
2022-09-10T10:27:58.327Z,432
2022-09-10T10:28:57.925Z,452
2022-09-10T10:29:58.541Z,472
2022-09-10T10:31:00.090Z,504
2022-09-10T10:32:03.786Z,528
2022-09-10T10:33:00.821Z,540
2022-09-10T10:34:02.071Z,552
2022-09-10T10:35:02.249Z,552
2022-09-10T10:36:02.869Z,544
2022-09-10T10:37:03.488Z,524
2022-09-10T10:38:04.408Z,496
2022-09-10T10:39:05.320Z,464
2022-09-10T10:40:06.646Z,432
2022-09-10T10:41:06.998Z,416
2022-09-10T10:42:07.989Z,416
2022-09-10T10:43:08.286Z,432
2022-09-10T10:44:08.906Z,452
2022-09-10T10:45:09.518Z,468
2022-09-10T10:46:17.449Z,484
2022-09-10T10:47:10.712Z,496
2022-09-10T10:48:11.918Z,496
2022-09-10T10:49:14.917Z,488
2022-09-10T10:50:12.123Z,488
2022-09-10T10:51:12.755Z,496
2022-09-10T10:52:13.751Z,512
2022-09-10T10:53:15.320Z,540
2022-09-10T10:54:15.936Z,580
2022-09-10T10:55:16.855Z,608
2022-09-10T10:56:17.078Z,648
2022-09-10T10:57:16.696Z,696
2022-09-10T10:58:18.311Z,752
2022-09-10T10:59:18.955Z,812
2022-09-10T11:00:19.874Z,872
2022-09-10T11:01:20.669Z,928
2022-09-10T11:02:21.500Z,1000
2022-09-10T11:03:22.109Z,1112
2022-09-10T11:04:22.374Z,1304
2022-09-10T11:05:22.859Z,1476
2022-09-10T11:06:22.766Z,1696
2022-09-10T11:07:22.369Z,1972
2022-09-10T11:08:23.283Z,2344
2022-09-10T11:09:24.198Z,2628
2022-09-10T11:10:24.423Z,2588
2022-09-10T11:11:25.637Z,2436
2022-09-10T11:12:26.361Z,2624
2022-09-10T11:13:26.681Z,3596
2022-09-10T11:14:27.023Z,4224
2022-09-10T11:15:28.240Z,4192
2022-09-10T11:16:29.089Z,3540
2022-09-10T11:17:29.877Z,2980
2022-09-10T11:18:30.080Z,3860
2022-09-10T11:19:30.736Z,4176
2022-09-10T11:20:40.774Z,4596
2022-09-10T11:21:32.692Z,4356
2022-09-10T11:22:33.684Z,3648
2022-09-10T11:23:34.600Z,3568
2022-09-10T11:24:35.098Z,3116
2022-09-10T11:25:35.298Z,2748
2022-09-10T11:26:36.234Z,2812
2022-09-10T11:27:36.878Z,3240
2022-09-10T11:28:37.369Z,3288
2022-09-10T11:29:37.994Z,4468
2022-09-10T11:30:38.911Z,3888
2022-09-10T11:31:39.428Z,3740
2022-09-10T11:32:39.461Z,4612
2022-09-10T11:33:39.817Z,4724
2022-09-10T11:34:40.478Z,7112
2022-09-10T11:35:41.360Z,6320
2022-09-10T11:36:42.560Z,6460
2022-09-10T11:37:42.162Z,6400
2022-09-10T11:38:43.217Z,6620
2022-09-10T11:39:44.253Z,6744
2022-09-10T11:40:44.533Z,7176
2022-09-10T11:41:44.765Z,6844
2022-09-10T11:42:45.765Z,7580
2022-09-10T11:43:46.500Z,7780
2022-09-10T11:44:47.233Z,6720
2022-09-10T11:45:47.157Z,5620
2022-09-10T11:46:47.980Z,5948
2022-09-10T11:47:48.185Z,3832
2022-09-10T11:48:49.164Z,7168
2022-09-10T11:49:49.723Z,6632
2022-09-10T11:50:49.352Z,6308
2022-09-10T11:51:49.984Z,5520
2022-09-10T11:52:50.743Z,3544
2022-09-10T11:53:52.259Z,4732
2022-09-10T11:54:51.908Z,2852
2022-09-10T11:55:52.836Z,2304
2022-09-10T11:56:53.741Z,1884
2022-09-10T11:57:54.647Z,1432
2022-09-10T11:58:55.542Z,1320
2022-09-10T11:59:56.223Z,1308
2022-09-10T12:00:56.850Z,1264
2022-09-10T12:01:57.824Z,1232
2022-09-10T12:02:57.362Z,1184
2022-09-10T12:03:58.856Z,1092
2022-09-10T12:04:59.424Z,964
2022-09-10T12:05:59.336Z,812
2022-09-10T12:06:59.680Z,684
2022-09-10T12:08:00.318Z,624
2022-09-10T12:09:00.238Z,548
2022-09-10T12:10:00.867Z,440
2022-09-10T12:11:01.889Z,432
2022-09-10T12:12:01.828Z,440
2022-09-10T12:13:03.153Z,400
2022-09-10T12:14:03.478Z,408
2022-09-10T12:15:04.378Z,428
2022-09-10T12:16:05.737Z,452
2022-09-10T12:17:05.365Z,464
2022-09-10T12:18:05.985Z,472
2022-09-10T12:19:06.887Z,472
2022-09-10T12:20:07.618Z,476
2022-09-10T12:21:07.540Z,460
2022-09-10T12:22:07.876Z,432
2022-09-10T12:23:09.151Z,400
2022-09-10T12:24:10.060Z,360
2022-09-10T12:25:10.682Z,332
2022-09-10T12:26:11.305Z,308
2022-09-10T12:27:12.231Z,304
2022-09-10T12:28:13.877Z,296
2022-09-10T12:29:13.504Z,308
2022-09-10T12:30:13.892Z,340
2022-09-10T12:31:15.086Z,380
2022-09-10T12:32:14.758Z,432
2022-09-10T12:33:15.182Z,524
2022-09-10T12:34:15.806Z,624
2022-09-10T12:35:17.347Z,764
2022-09-10T12:36:17.253Z,940
2022-09-10T12:37:17.593Z,1084
2022-09-10T12:38:19.106Z,1200
2022-09-10T12:39:19.048Z,1272
2022-09-10T12:40:24.336Z,1324
2022-09-10T12:41:20.679Z,1348
2022-09-10T12:42:21.338Z,1384
2022-09-10T12:43:22.642Z,1384
2022-09-10T12:44:23.295Z,1296
2022-09-10T12:45:23.647Z,1180
2022-09-10T12:46:24.924Z,1108
2022-09-10T12:47:24.888Z,1132
2022-09-10T12:48:32.334Z,1196
2022-09-10T12:49:26.083Z,1268
2022-09-10T12:50:27.029Z,1512
2022-09-10T12:51:27.505Z,2968
2022-09-10T12:52:27.417Z,3032
2022-09-10T12:53:28.745Z,2768
2022-09-10T12:54:28.674Z,2480
2022-09-10T12:55:29.871Z,3152
2022-09-10T12:56:30.216Z,2632
2022-09-10T12:57:31.456Z,2220
2022-09-10T12:58:33.489Z,6604
2022-09-10T12:59:32.695Z,9692
2022-09-10T13:00:33.360Z,6952
2022-09-10T13:01:34.052Z,2984
2022-09-10T13:02:34.503Z,3252
2022-09-10T13:03:34.702Z,3832
2022-09-10T13:04:35.412Z,2076
2022-09-10T13:05:37.077Z,3260
2022-09-10T13:06:38.280Z,8188
2022-09-10T13:07:38.489Z,9080
2022-09-10T13:08:38.982Z,3816
2022-09-10T13:09:39.490Z,2856
2022-09-10T13:10:39.988Z,3236
2022-09-10T13:11:40.211Z,8316
2022-09-10T13:12:41.148Z,1296
2022-09-10T13:13:41.363Z,1316
2022-09-10T13:14:42.367Z,1644
2022-09-10T13:15:43.195Z,1308
2022-09-10T13:16:43.454Z,1416
2022-09-10T13:17:44.080Z,1520
2022-09-10T13:18:45.296Z,1636
2022-09-10T13:19:45.845Z,1728
2022-09-10T13:20:46.385Z,1656
2022-09-10T13:21:46.587Z,1496
2022-09-10T13:22:46.482Z,6472
2022-09-10T13:23:47.441Z,1520
2022-09-10T13:24:47.569Z,1220
2022-09-10T13:25:47.484Z,1040
2022-09-10T13:26:48.096Z,1044
2022-09-10T13:27:49.023Z,1076
2022-09-10T13:28:49.945Z,1168
2022-09-10T13:29:50.140Z,1284
2022-09-10T13:30:51.254Z,1364
2022-09-10T13:31:51.199Z,1368
2022-09-10T13:32:51.393Z,1388
2022-09-10T13:33:52.216Z,1368
2022-09-10T13:34:52.139Z,1416
2022-09-10T13:35:53.110Z,1424
2022-09-10T13:36:53.291Z,1616
2022-09-10T13:37:53.932Z,2384
2022-09-10T13:38:54.573Z,3812
2022-09-10T13:39:55.057Z,1940
2022-09-10T13:40:55.116Z,1612
2022-09-10T13:41:55.751Z,1416
2022-09-10T13:42:56.977Z,1308
2022-09-10T13:44:01.012Z,1776
2022-09-10T13:44:58.171Z,1504
2022-09-10T13:45:59.514Z,1504
2022-09-10T13:46:59.603Z,1220
2022-09-10T13:48:00.239Z,1008
2022-09-10T13:49:00.581Z,860
2022-09-10T13:50:01.774Z,816
2022-09-10T13:51:02.747Z,1080
2022-09-10T13:52:03.380Z,1104
2022-09-10T13:53:04.573Z,1276
2022-09-10T13:54:05.278Z,1480
2022-09-10T13:55:05.789Z,1712
2022-09-10T13:56:05.708Z,1668
2022-09-10T13:57:05.956Z,1528
2022-09-10T13:58:06.155Z,1432
2022-09-10T13:59:07.088Z,1356
2022-09-10T14:00:07.285Z,1296
2022-09-10T14:01:06.914Z,1212
2022-09-10T14:02:07.578Z,1220
2022-09-10T14:03:08.647Z,1240
2022-09-10T14:04:09.086Z,1296
2022-09-10T14:05:10.285Z,1424
2022-09-10T14:06:11.317Z,1972
2022-09-10T14:07:12.218Z,2632
2022-09-10T14:08:13.222Z,2440
2022-09-10T14:09:13.837Z,2176
2022-09-10T14:10:14.454Z,2468
2022-09-10T14:11:15.376Z,2492
2022-09-10T14:12:14.706Z,2616
2022-09-10T14:13:15.909Z,3632